DLH02T EDDF-LPFR
Flight info
| Callsign | DLH02T |
|---|---|
| Flight time | N/A |
| Altitude | 34000 |
| Route | ANEKI2L ANEKI DCT VABEN DCT OVTEC DCT OBORN DCT MOROK/N0450F350 DCT GILIR/N0457F370 DCT NINTU DCT MEBAK DCT REPSI DCT LERGA DCT MINSO DCT NARAK DCT AGN DCT PIPOR L866 PPN DCT MIRPO DCT DGO DCT NEA L14 ADINO DCT RAKOD DCT ELVAR DCT ALAGU DCT USALU |
| Aircraft | A21N/M-SDE2E3FGIJ1LORWXYZ/HB1 |
Departure
| Time | N/A |
|---|---|
| Airport | Frankfurt Main Airport (EDDF) |
Arrival
| Time | 2026-05-06 13:26 |
|---|---|
| Airport | Faro - Gago Coutinho International Airport (LPFR) |
| Time | Latitude | Longitude | Altitude | Speed | Heading |
|---|---|---|---|---|---|
| 2026-05-06 12:01 | 43.26028 | -0.55572 | 36964 ft | 420 kts | 240° |
| 2026-05-06 12:01 | 43.24502 | -0.58961 | 36962 ft | 421 kts | 240° |
| 2026-05-06 12:01 | 43.21427 | -0.65773 | 36965 ft | 421 kts | 239° |
| 2026-05-06 12:02 | 43.18320 | -0.72641 | 36968 ft | 422 kts | 240° |
| 2026-05-06 12:02 | 43.15241 | -0.79431 | 36972 ft | 421 kts | 240° |
| 2026-05-06 12:03 | 43.12154 | -0.86220 | 36979 ft | 421 kts | 240° |
| 2026-05-06 12:03 | 43.09079 | -0.92968 | 36976 ft | 420 kts | 240° |
| 2026-05-06 12:04 | 43.05998 | -0.99716 | 36970 ft | 420 kts | 240° |
| 2026-05-06 12:04 | 43.02906 | -1.06465 | 36973 ft | 420 kts | 240° |
| 2026-05-06 12:05 | 42.99818 | -1.13197 | 36981 ft | 420 kts | 240° |
| 2026-05-06 12:05 | 42.96710 | -1.19957 | 36992 ft | 420 kts | 240° |
| 2026-05-06 12:06 | 42.93607 | -1.26689 | 36993 ft | 421 kts | 240° |
| 2026-05-06 12:06 | 42.90499 | -1.33414 | 37001 ft | 421 kts | 240° |
| 2026-05-06 12:07 | 42.87383 | -1.40140 | 37010 ft | 420 kts | 240° |
| 2026-05-06 12:07 | 42.84276 | -1.46835 | 37002 ft | 421 kts | 240° |
| 2026-05-06 12:08 | 42.81168 | -1.53514 | 37001 ft | 419 kts | 240° |
| 2026-05-06 12:08 | 42.78044 | -1.60210 | 37004 ft | 420 kts | 240° |
| 2026-05-06 12:09 | 42.75095 | -1.67048 | 36999 ft | 418 kts | 244° |
| 2026-05-06 12:09 | 42.72682 | -1.74197 | 36995 ft | 418 kts | 250° |
| 2026-05-06 12:10 | 42.70806 | -1.81627 | 36990 ft | 417 kts | 254° |
| 2026-05-06 12:10 | 42.69111 | -1.89127 | 36994 ft | 417 kts | 254° |
| 2026-05-06 12:11 | 42.67419 | -1.96608 | 36990 ft | 417 kts | 254° |
| 2026-05-06 12:11 | 42.65716 | -2.04109 | 36985 ft | 416 kts | 254° |
| 2026-05-06 12:12 | 42.64012 | -2.11594 | 36981 ft | 416 kts | 254° |
| 2026-05-06 12:12 | 42.62278 | -2.19072 | 36974 ft | 416 kts | 253° |
| 2026-05-06 12:13 | 42.60473 | -2.26510 | 36970 ft | 415 kts | 253° |
| 2026-05-06 12:13 | 42.58663 | -2.33933 | 36976 ft | 416 kts | 253° |
| 2026-05-06 12:14 | 42.56853 | -2.41350 | 36976 ft | 417 kts | 253° |
| 2026-05-06 12:14 | 42.55036 | -2.48782 | 36967 ft | 417 kts | 253° |
| 2026-05-06 12:15 | 42.53216 | -2.56202 | 36977 ft | 417 kts | 253° |
| 2026-05-06 12:15 | 42.51382 | -2.63658 | 36973 ft | 416 kts | 253° |
| 2026-05-06 12:16 | 42.49549 | -2.71076 | 36966 ft | 416 kts | 252° |
| 2026-05-06 12:16 | 42.47715 | -2.78480 | 36975 ft | 416 kts | 252° |
| 2026-05-06 12:17 | 42.45871 | -2.85833 | 36968 ft | 415 kts | 251° |
| 2026-05-06 12:17 | 42.43625 | -2.93075 | 36974 ft | 417 kts | 247° |
| 2026-05-06 12:18 | 42.41204 | -3.00211 | 36975 ft | 417 kts | 247° |
| 2026-05-06 12:18 | 42.38794 | -3.07291 | 36787 ft | 417 kts | 247° |
| 2026-05-06 12:19 | 42.37566 | -3.10892 | 37073 ft | 419 kts | 247° |
| 2026-05-06 12:19 | 42.36357 | -3.14432 | 36867 ft | 418 kts | 247° |
| 2026-05-06 12:19 | 42.33923 | -3.21539 | 36954 ft | 419 kts | 247° |
| 2026-05-06 12:20 | 42.31471 | -3.28679 | 36973 ft | 419 kts | 247° |
| 2026-05-06 12:20 | 42.29027 | -3.35777 | 36981 ft | 419 kts | 247° |
| 2026-05-06 12:21 | 42.26570 | -3.42890 | 36989 ft | 419 kts | 247° |
| 2026-05-06 12:21 | 42.24102 | -3.50017 | 36982 ft | 419 kts | 247° |
| 2026-05-06 12:22 | 42.21639 | -3.57114 | 36984 ft | 419 kts | 247° |
| 2026-05-06 12:22 | 42.19162 | -3.64237 | 36986 ft | 419 kts | 247° |
| 2026-05-06 12:23 | 42.16699 | -3.71298 | 36990 ft | 420 kts | 246° |
| 2026-05-06 12:23 | 42.14209 | -3.78418 | 36983 ft | 420 kts | 246° |
| 2026-05-06 12:24 | 42.11725 | -3.85503 | 36980 ft | 421 kts | 246° |
| 2026-05-06 12:24 | 42.09214 | -3.92639 | 36985 ft | 421 kts | 246° |
| 2026-05-06 12:25 | 42.06718 | -3.99700 | 36979 ft | 422 kts | 245° |
| 2026-05-06 12:25 | 42.03791 | -4.06556 | 36972 ft | 423 kts | 239° |
| 2026-05-06 12:26 | 42.00270 | -4.12859 | 36971 ft | 424 kts | 232° |
| 2026-05-06 12:26 | 41.96167 | -4.18574 | 36971 ft | 426 kts | 225° |
| 2026-05-06 12:27 | 41.91737 | -4.23795 | 36968 ft | 427 kts | 224° |
| 2026-05-06 12:27 | 41.87238 | -4.29059 | 36966 ft | 426 kts | 224° |
| 2026-05-06 12:28 | 41.82780 | -4.34260 | 36969 ft | 426 kts | 224° |
| 2026-05-06 12:28 | 41.78309 | -4.39468 | 36974 ft | 427 kts | 224° |
| 2026-05-06 12:29 | 41.73837 | -4.44668 | 36976 ft | 428 kts | 224° |
| 2026-05-06 12:29 | 41.69334 | -4.49893 | 36976 ft | 427 kts | 224° |
| 2026-05-06 12:30 | 41.64858 | -4.55077 | 36980 ft | 426 kts | 224° |
| 2026-05-06 12:30 | 41.60391 | -4.60239 | 36980 ft | 426 kts | 224° |
| 2026-05-06 12:31 | 41.55914 | -4.65404 | 36980 ft | 425 kts | 223° |
| 2026-05-06 12:31 | 41.51442 | -4.70553 | 36978 ft | 426 kts | 223° |
| 2026-05-06 12:32 | 41.46985 | -4.75677 | 36977 ft | 426 kts | 223° |
| 2026-05-06 12:32 | 41.42498 | -4.80825 | 36976 ft | 426 kts | 223° |
| 2026-05-06 12:33 | 41.38015 | -4.85955 | 36973 ft | 426 kts | 223° |
| 2026-05-06 12:33 | 41.33520 | -4.91092 | 36968 ft | 426 kts | 223° |
| 2026-05-06 12:34 | 41.29045 | -4.96194 | 36967 ft | 426 kts | 223° |
| 2026-05-06 12:34 | 41.24544 | -5.01317 | 36967 ft | 425 kts | 223° |
| 2026-05-06 12:35 | 41.20072 | -5.06395 | 36965 ft | 425 kts | 223° |
| 2026-05-06 12:35 | 41.15589 | -5.11473 | 36963 ft | 425 kts | 223° |
| 2026-05-06 12:36 | 41.11097 | -5.16551 | 36966 ft | 425 kts | 223° |
| 2026-05-06 12:36 | 41.06607 | -5.21620 | 36969 ft | 425 kts | 223° |
| 2026-05-06 12:37 | 41.02134 | -5.26659 | 36973 ft | 424 kts | 223° |
| 2026-05-06 12:37 | 40.97627 | -5.31727 | 36979 ft | 425 kts | 223° |
| 2026-05-06 12:38 | 40.93132 | -5.36771 | 36989 ft | 425 kts | 223° |
| 2026-05-06 12:38 | 40.88628 | -5.41819 | 36990 ft | 424 kts | 223° |
| 2026-05-06 12:39 | 40.84148 | -5.46830 | 36986 ft | 424 kts | 223° |
| 2026-05-06 12:39 | 40.79665 | -5.51831 | 36979 ft | 423 kts | 223° |
| 2026-05-06 12:40 | 40.75154 | -5.56857 | 36972 ft | 424 kts | 223° |
| 2026-05-06 12:40 | 40.70682 | -5.61830 | 36964 ft | 424 kts | 223° |
| 2026-05-06 12:41 | 40.66162 | -5.66846 | 36956 ft | 424 kts | 222° |
| 2026-05-06 12:41 | 40.61639 | -5.71857 | 36951 ft | 424 kts | 222° |
| 2026-05-06 12:42 | 40.57127 | -5.76846 | 36948 ft | 424 kts | 222° |
| 2026-05-06 12:42 | 40.52623 | -5.81819 | 36946 ft | 423 kts | 222° |
| 2026-05-06 12:43 | 40.48138 | -5.86766 | 36947 ft | 424 kts | 223° |
| 2026-05-06 12:43 | 40.43634 | -5.91724 | 36946 ft | 423 kts | 222° |
| 2026-05-06 12:44 | 40.39129 | -5.96674 | 36943 ft | 423 kts | 222° |
| 2026-05-06 12:44 | 40.34644 | -6.01589 | 36940 ft | 422 kts | 222° |
| 2026-05-06 12:45 | 40.30128 | -6.06530 | 36939 ft | 422 kts | 223° |
| 2026-05-06 12:46 | 40.23401 | -6.13880 | 36943 ft | 422 kts | 222° |
| 2026-05-06 12:46 | 40.18895 | -6.18788 | 36947 ft | 423 kts | 222° |
| 2026-05-06 12:47 | 40.14374 | -6.23705 | 36946 ft | 423 kts | 222° |
| 2026-05-06 12:47 | 40.09846 | -6.28620 | 36946 ft | 423 kts | 222° |
| 2026-05-06 12:48 | 40.05341 | -6.33501 | 36944 ft | 422 kts | 222° |
| 2026-05-06 12:48 | 40.00843 | -6.38366 | 36942 ft | 422 kts | 222° |
| 2026-05-06 12:49 | 39.96324 | -6.43247 | 36941 ft | 422 kts | 222° |
| 2026-05-06 12:49 | 39.91809 | -6.48115 | 36935 ft | 422 kts | 222° |
| 2026-05-06 12:50 | 39.87293 | -6.52973 | 36934 ft | 422 kts | 222° |
| 2026-05-06 12:50 | 39.82786 | -6.57814 | 36937 ft | 421 kts | 222° |
| 2026-05-06 12:51 | 39.78247 | -6.62681 | 36938 ft | 422 kts | 222° |
| 2026-05-06 12:51 | 39.73729 | -6.67516 | 36937 ft | 421 kts | 221° |
| 2026-05-06 12:52 | 39.69230 | -6.72323 | 36939 ft | 421 kts | 221° |
| 2026-05-06 12:52 | 39.64700 | -6.77154 | 36939 ft | 422 kts | 221° |
| 2026-05-06 12:53 | 39.60160 | -6.81987 | 36940 ft | 422 kts | 221° |
| 2026-05-06 12:53 | 39.55635 | -6.86795 | 36939 ft | 422 kts | 221° |
| 2026-05-06 12:54 | 39.51118 | -6.91585 | 36935 ft | 422 kts | 221° |
| 2026-05-06 12:54 | 39.46636 | -6.96331 | 36932 ft | 421 kts | 221° |
| 2026-05-06 12:55 | 39.42127 | -7.01097 | 36932 ft | 421 kts | 221° |
| 2026-05-06 12:55 | 39.37590 | -7.05882 | 36933 ft | 421 kts | 221° |
| 2026-05-06 12:56 | 39.33067 | -7.10645 | 36931 ft | 421 kts | 221° |
| 2026-05-06 12:56 | 39.28495 | -7.15408 | 36930 ft | 422 kts | 220° |
| 2026-05-06 12:57 | 39.23608 | -7.19616 | 36930 ft | 424 kts | 213° |
| 2026-05-06 12:57 | 39.18351 | -7.23003 | 36934 ft | 427 kts | 206° |
| 2026-05-06 12:58 | 39.12707 | -7.25554 | 36935 ft | 430 kts | 199° |
| 2026-05-06 12:58 | 39.06955 | -7.27578 | 36933 ft | 430 kts | 199° |
| 2026-05-06 12:59 | 39.01216 | -7.29588 | 36933 ft | 430 kts | 199° |
| 2026-05-06 12:59 | 38.95438 | -7.31607 | 36938 ft | 430 kts | 199° |
| 2026-05-06 13:00 | 38.89651 | -7.33625 | 36931 ft | 430 kts | 199° |
| 2026-05-06 13:00 | 38.83849 | -7.35645 | 36930 ft | 430 kts | 199° |
| 2026-05-06 13:01 | 38.78091 | -7.37645 | 36506 ft | 428 kts | 199° |
| 2026-05-06 13:01 | 38.75246 | -7.38635 | 35830 ft | 433 kts | 199° |
| 2026-05-06 13:01 | 38.72303 | -7.39658 | 35256 ft | 437 kts | 199° |
| 2026-05-06 13:01 | 38.69396 | -7.40666 | 34688 ft | 437 kts | 199° |
| 2026-05-06 13:02 | 38.66476 | -7.41677 | 33997 ft | 437 kts | 199° |
| 2026-05-06 13:02 | 38.63558 | -7.42687 | 33233 ft | 437 kts | 199° |
| 2026-05-06 13:02 | 38.60636 | -7.43697 | 32604 ft | 433 kts | 199° |
| 2026-05-06 13:02 | 38.57758 | -7.44691 | 32046 ft | 429 kts | 198° |
| 2026-05-06 13:03 | 38.54872 | -7.45685 | 31415 ft | 426 kts | 198° |
| 2026-05-06 13:03 | 38.52040 | -7.46661 | 30835 ft | 423 kts | 198° |
| 2026-05-06 13:03 | 38.49206 | -7.47636 | 30303 ft | 418 kts | 198° |
| 2026-05-06 13:03 | 38.46441 | -7.48587 | 29826 ft | 412 kts | 198° |
| 2026-05-06 13:04 | 38.43705 | -7.49527 | 29349 ft | 407 kts | 198° |
| 2026-05-06 13:04 | 38.40979 | -7.50464 | 28878 ft | 402 kts | 198° |
| 2026-05-06 13:04 | 38.38287 | -7.51387 | 28419 ft | 396 kts | 198° |
| 2026-05-06 13:04 | 38.35677 | -7.52282 | 27982 ft | 391 kts | 198° |
| 2026-05-06 13:05 | 38.33070 | -7.53176 | 27527 ft | 387 kts | 198° |
| 2026-05-06 13:05 | 38.30458 | -7.54072 | 27079 ft | 383 kts | 198° |
| 2026-05-06 13:05 | 38.27903 | -7.54947 | 26637 ft | 379 kts | 198° |
| 2026-05-06 13:05 | 38.25398 | -7.55803 | 26190 ft | 375 kts | 198° |
| 2026-05-06 13:06 | 38.22871 | -7.56667 | 25753 ft | 372 kts | 198° |
| 2026-05-06 13:06 | 38.20390 | -7.57514 | 25312 ft | 369 kts | 198° |
| 2026-05-06 13:06 | 38.17940 | -7.58351 | 24852 ft | 366 kts | 198° |
| 2026-05-06 13:06 | 38.15492 | -7.59184 | 24403 ft | 363 kts | 198° |
| 2026-05-06 13:07 | 38.13058 | -7.60014 | 23969 ft | 360 kts | 198° |
| 2026-05-06 13:07 | 38.10657 | -7.60780 | 23532 ft | 358 kts | 195° |
| 2026-05-06 13:07 | 38.08189 | -7.61276 | 23083 ft | 357 kts | 189° |
| 2026-05-06 13:07 | 38.05734 | -7.61460 | 22649 ft | 356 kts | 184° |
| 2026-05-06 13:08 | 38.03270 | -7.61461 | 22218 ft | 354 kts | 183° |
| 2026-05-06 13:08 | 38.00803 | -7.61453 | 21776 ft | 351 kts | 184° |
| 2026-05-06 13:08 | 37.98382 | -7.61461 | 21356 ft | 349 kts | 184° |
| 2026-05-06 13:08 | 37.95977 | -7.61461 | 20941 ft | 346 kts | 183° |
| 2026-05-06 13:09 | 37.93552 | -7.61463 | 20504 ft | 344 kts | 184° |
| 2026-05-06 13:09 | 37.91195 | -7.61461 | 20089 ft | 342 kts | 183° |
| 2026-05-06 13:09 | 37.88804 | -7.61466 | 19668 ft | 340 kts | 183° |
| 2026-05-06 13:09 | 37.86436 | -7.61461 | 19228 ft | 339 kts | 183° |
| 2026-05-06 13:10 | 37.84085 | -7.61463 | 18796 ft | 337 kts | 183° |
| 2026-05-06 13:10 | 37.81747 | -7.61465 | 18382 ft | 336 kts | 183° |
| 2026-05-06 13:10 | 37.79429 | -7.61463 | 17950 ft | 335 kts | 183° |
| 2026-05-06 13:10 | 37.77100 | -7.61463 | 17516 ft | 334 kts | 182° |
| 2026-05-06 13:11 | 37.74788 | -7.61465 | 17109 ft | 332 kts | 183° |
| 2026-05-06 13:11 | 37.72493 | -7.61463 | 16692 ft | 330 kts | 182° |
| 2026-05-06 13:11 | 37.70202 | -7.61463 | 16276 ft | 329 kts | 182° |
| 2026-05-06 13:11 | 37.67899 | -7.61466 | 15874 ft | 327 kts | 182° |
| 2026-05-06 13:12 | 37.65648 | -7.61464 | 15468 ft | 326 kts | 182° |
| 2026-05-06 13:12 | 37.63366 | -7.61463 | 15042 ft | 325 kts | 182° |
| 2026-05-06 13:12 | 37.61107 | -7.61465 | 14624 ft | 323 kts | 182° |
| 2026-05-06 13:12 | 37.58881 | -7.61465 | 14219 ft | 322 kts | 182° |
| 2026-05-06 13:13 | 37.56634 | -7.61465 | 13797 ft | 321 kts | 182° |
| 2026-05-06 13:13 | 37.54409 | -7.61464 | 13387 ft | 319 kts | 182° |
| 2026-05-06 13:13 | 37.52216 | -7.61464 | 12991 ft | 318 kts | 181° |
| 2026-05-06 13:13 | 37.49984 | -7.61463 | 12558 ft | 317 kts | 181° |
| 2026-05-06 13:14 | 37.47791 | -7.61463 | 12161 ft | 316 kts | 181° |
| 2026-05-06 13:14 | 37.45608 | -7.61465 | 11755 ft | 315 kts | 181° |
| 2026-05-06 13:14 | 37.43411 | -7.61466 | 11339 ft | 314 kts | 181° |
| 2026-05-06 13:14 | 37.41235 | -7.61465 | 10938 ft | 312 kts | 181° |
| 2026-05-06 13:15 | 37.39067 | -7.61464 | 10539 ft | 311 kts | 181° |
| 2026-05-06 13:15 | 37.36893 | -7.61465 | 10136 ft | 310 kts | 181° |
| 2026-05-06 13:15 | 37.34792 | -7.61465 | 9981 ft | 298 kts | 181° |
| 2026-05-06 13:15 | 37.32753 | -7.61466 | 9761 ft | 290 kts | 181° |
| 2026-05-06 13:16 | 37.30732 | -7.61464 | 9392 ft | 288 kts | 181° |
| 2026-05-06 13:16 | 37.28742 | -7.61467 | 9011 ft | 287 kts | 180° |
| 2026-05-06 13:16 | 37.26741 | -7.61466 | 8632 ft | 286 kts | 180° |
| 2026-05-06 13:16 | 37.24773 | -7.61468 | 8266 ft | 284 kts | 180° |
| 2026-05-06 13:17 | 37.22777 | -7.61471 | 7903 ft | 283 kts | 180° |
| 2026-05-06 13:17 | 37.20817 | -7.61475 | 7533 ft | 282 kts | 180° |
| 2026-05-06 13:17 | 37.18862 | -7.61478 | 7171 ft | 281 kts | 180° |
| 2026-05-06 13:17 | 37.16916 | -7.61479 | 6795 ft | 280 kts | 180° |
| 2026-05-06 13:18 | 37.14973 | -7.61479 | 6443 ft | 279 kts | 180° |
| 2026-05-06 13:18 | 37.13016 | -7.61481 | 6077 ft | 278 kts | 180° |
| 2026-05-06 13:18 | 37.11096 | -7.61483 | 5743 ft | 276 kts | 180° |
| 2026-05-06 13:18 | 37.09179 | -7.61516 | 5394 ft | 275 kts | 185° |
| 2026-05-06 13:19 | 37.07326 | -7.61985 | 5058 ft | 273 kts | 200° |
| 2026-05-06 13:19 | 37.05572 | -7.62876 | 4811 ft | 266 kts | 205° |
| 2026-05-06 13:19 | 37.03916 | -7.63811 | 4544 ft | 261 kts | 206° |
| 2026-05-06 13:19 | 37.02267 | -7.64749 | 4270 ft | 257 kts | 205° |
| 2026-05-06 13:20 | 37.00647 | -7.65658 | 4058 ft | 250 kts | 205° |
| 2026-05-06 13:20 | 36.99104 | -7.66517 | 3988 ft | 237 kts | 206° |
| 2026-05-06 13:20 | 36.97830 | -7.67678 | 3920 ft | 220 kts | 239° |
| 2026-05-06 13:20 | 36.97428 | -7.69458 | 3819 ft | 209 kts | 275° |
| 2026-05-06 13:21 | 36.97683 | -7.71146 | 3664 ft | 196 kts | 284° |
| 2026-05-06 13:21 | 36.97972 | -7.72781 | 3424 ft | 189 kts | 284° |
| 2026-05-06 13:21 | 36.98262 | -7.74376 | 3243 ft | 186 kts | 285° |
| 2026-05-06 13:21 | 36.98533 | -7.75961 | 3094 ft | 186 kts | 283° |
| 2026-05-06 13:22 | 36.98775 | -7.77535 | 2863 ft | 185 kts | 282° |
| 2026-05-06 13:22 | 36.98999 | -7.79109 | 2607 ft | 180 kts | 281° |
| 2026-05-06 13:22 | 36.99202 | -7.80587 | 2355 ft | 166 kts | 281° |
| 2026-05-06 13:22 | 36.99386 | -7.81936 | 2165 ft | 151 kts | 281° |
| 2026-05-06 13:23 | 36.99558 | -7.83188 | 1953 ft | 139 kts | 281° |
| 2026-05-06 13:23 | 36.99721 | -7.84360 | 1791 ft | 138 kts | 281° |
| 2026-05-06 13:23 | 36.99887 | -7.85541 | 1623 ft | 137 kts | 281° |
| 2026-05-06 13:23 | 37.00051 | -7.86711 | 1454 ft | 136 kts | 280° |
| 2026-05-06 13:24 | 37.00214 | -7.87877 | 1282 ft | 135 kts | 279° |
| 2026-05-06 13:24 | 37.00377 | -7.89034 | 1105 ft | 134 kts | 279° |
| 2026-05-06 13:24 | 37.00538 | -7.90180 | 927 ft | 132 kts | 279° |
| 2026-05-06 13:24 | 37.00697 | -7.91302 | 752 ft | 131 kts | 278° |
| 2026-05-06 13:25 | 37.00853 | -7.92407 | 583 ft | 129 kts | 278° |
| 2026-05-06 13:25 | 37.01008 | -7.93505 | 417 ft | 128 kts | 278° |
| 2026-05-06 13:25 | 37.01159 | -7.94598 | 248 ft | 127 kts | 277° |
| 2026-05-06 13:25 | 37.01315 | -7.95684 | 93 ft | 126 kts | 277° |
| 2026-05-06 13:26 | 37.01469 | -7.96737 | 23 ft | 114 kts | 277° |
| 2026-05-06 13:26 | 37.01574 | -7.97521 | 21 ft | 67 kts | 281° |
| 2026-05-06 13:26 | 37.01635 | -7.97851 | 22 ft | 17 kts | 323° |
| 2026-05-06 13:26 | 37.01725 | -7.97804 | 24 ft | 13 kts | 53° |
| 2026-05-06 13:27 | 37.01761 | -7.97698 | 26 ft | 13 kts | 74° |
| 2026-05-06 13:27 | 37.01761 | -7.97541 | 24 ft | 24 kts | 102° |
| 2026-05-06 13:27 | 37.01731 | -7.97335 | 24 ft | 23 kts | 100° |
| 2026-05-06 13:27 | 37.01706 | -7.97158 | 23 ft | 17 kts | 99° |
| 2026-05-06 13:28 | 37.01684 | -7.97003 | 23 ft | 18 kts | 100° |
| 2026-05-06 13:28 | 37.01702 | -7.96911 | 23 ft | 10 kts | 20° |
| 2026-05-06 13:28 | 37.01771 | -7.96894 | 24 ft | 9 kts | 9° |
| 2026-05-06 13:28 | 37.01824 | -7.96896 | 25 ft | 6 kts | 327° |
| 2026-05-06 13:29 | 37.01851 | -7.96930 | 26 ft | 3 kts | 346° |
| 2026-05-06 13:29 | 37.01884 | -7.96923 | 26 ft | 5 kts | 11° |
| 2026-05-06 13:29 | 37.01918 | -7.96915 | 26 ft | 0 kts | 10° |
| 2026-05-06 13:29 | 37.01924 | -7.96914 | 26 ft | 0 kts | 10° |